Paint Lick, Virginia
Current Conditions -  °F | °C
As of 11:35 AM on Wednesday 22 Oct 2014 (Local Time) from KJFZ Reporting Station
Overcast Overcast  
Wind Chill: 40°   Ceiling: 600
Heat Index: 45°   Visibility: 10mi
Dew Point: 42°   Wind: 9mph
Humidity: 90%   Direction: 330°NNW
Pressure: 30.17"   Gusts: NA
Location:  37.0457°N, 81.7316°W
Report Text: KJFZ 221535Z AUTO 33008KT 10SM OVC006 07/06 A3017 RMK AO2 T00700055
Loading
Personal Weather Stations






























Interactive Weather Map
Tropical Storm Tracking
New forecast layout! Learn more

10-Day Weather Forecast

Advertisements
Track Severe Weather on mobile